createdAt,value
2023-02-26T00:01:29.634Z,99384.09
2023-02-26T00:11:02.207Z,99370.45
2023-02-26T00:20:31.804Z,99379.02
2023-02-26T00:30:02.413Z,99378.87
2023-02-26T00:39:37.348Z,99380.77
2023-02-26T00:49:03.681Z,99388.39
2023-02-26T00:58:35.240Z,99405.22
2023-02-26T01:08:02.484Z,99404.52
2023-02-26T01:17:32.762Z,99406.89
2023-02-26T01:27:04.158Z,99412.34
2023-02-26T01:36:33.971Z,99410.43
2023-02-26T01:46:05.031Z,99404.78
2023-02-26T01:55:33.403Z,99413.36
2023-02-26T02:05:04.133Z,99419.85
2023-02-26T02:14:30.404Z,99427.86
2023-02-26T02:24:03.370Z,99431.91
2023-02-26T02:33:33.598Z,99437.16
2023-02-26T02:43:01.762Z,99441.34
2023-02-26T02:52:29.755Z,99446.71
2023-02-26T03:01:58.306Z,99455.07
2023-02-26T03:11:26.655Z,99470.25
2023-02-26T03:20:55.222Z,99472.58
2023-02-26T03:30:24.404Z,99469.81
2023-02-26T03:39:57.078Z,99489.47
2023-02-26T03:49:30.777Z,99494.83
2023-02-26T03:58:58.383Z,99508.82
2023-02-26T04:08:27.230Z,99508.16
2023-02-26T04:17:53.792Z,99520.95
2023-02-26T04:27:21.545Z,99529.23
2023-02-26T04:36:52.241Z,99546.66
2023-02-26T04:46:25.168Z,99555.34
2023-02-26T04:55:53.168Z,99553.58
2023-02-26T05:05:23.992Z,99560.78
2023-02-26T05:14:54.605Z,99560.18
2023-02-26T05:24:22.645Z,99589.11
2023-02-26T05:33:52.818Z,99597.88
2023-02-26T05:43:23.027Z,99619.54
2023-02-26T05:52:54.329Z,99615.12
2023-02-26T06:02:24.129Z,99608.41
2023-02-26T06:11:55.379Z,99628.77
2023-02-26T06:21:24.968Z,99636.52
2023-02-26T06:31:00.553Z,99647.05
2023-02-26T06:40:32.711Z,99651.62
2023-02-26T06:50:03.612Z,99674.69
2023-02-26T06:59:38.261Z,99703.02
2023-02-26T07:09:10.229Z,99719.59
2023-02-26T07:18:45.197Z,99739.85
2023-02-26T07:28:18.587Z,99768.35
2023-02-26T07:37:49.012Z,99787.05
2023-02-26T07:47:22.221Z,99785.05
2023-02-26T07:56:55.151Z,99789.56
2023-02-26T08:06:27.610Z,99796.37
2023-02-26T08:16:01.343Z,99807.66
2023-02-26T08:25:34.650Z,99815.77
2023-02-26T08:35:08.700Z,99837.76
2023-02-26T08:44:44.591Z,99848.88
2023-02-26T08:54:16.440Z,99851.02
2023-02-26T09:03:50.603Z,99862.23
2023-02-26T09:13:25.495Z,99863.70
2023-02-26T09:22:57.567Z,99884.28
2023-02-26T09:32:33.023Z,99889.17
2023-02-26T09:33:35.333Z,99891.38
2023-02-26T09:43:07.011Z,99897.28
2023-02-26T09:44:09.568Z,99899.81
2023-02-26T09:45:12.005Z,99892.52
2023-02-26T09:54:45.702Z,99901.72
2023-02-26T09:55:48.096Z,99893.22
2023-02-26T09:56:51.691Z,99893.77
2023-02-26T09:57:54.023Z,99898.35
2023-02-26T10:07:26.129Z,99910.20
2023-02-26T10:08:28.654Z,99922.00
2023-02-26T10:09:32.598Z,99930.50
2023-02-26T10:10:36.430Z,99919.14
2023-02-26T10:11:38.634Z,99923.00
2023-02-26T10:12:41.060Z,99919.20
2023-02-26T10:13:56.406Z,99930.51
2023-02-26T10:14:47.700Z,99933.03
2023-02-26T10:15:50.094Z,99927.91
2023-02-26T10:16:55.552Z,99930.66
2023-02-26T10:17:59.727Z,99932.21
2023-02-26T10:19:01.817Z,99946.05
2023-02-26T10:20:04.118Z,99935.56
2023-02-26T10:21:08.056Z,99938.83
2023-02-26T10:30:38.077Z,99945.17
2023-02-26T10:31:42.120Z,99937.12
2023-02-26T10:32:46.051Z,99939.66
2023-02-26T10:33:48.637Z,99946.28
2023-02-26T10:34:52.813Z,99940.38
2023-02-26T10:35:55.081Z,99943.85
2023-02-26T10:36:59.141Z,99944.95
2023-02-26T10:38:01.379Z,99945.66
2023-02-26T10:39:05.340Z,99946.16
2023-02-26T10:40:07.559Z,99949.64
2023-02-26T10:41:19.657Z,99942.91
2023-02-26T10:42:21.547Z,99947.05
2023-02-26T10:43:25.428Z,99952.50
2023-02-26T10:44:27.654Z,99946.03
2023-02-26T10:45:30.038Z,99951.11
2023-02-26T10:46:32.427Z,99956.68
2023-02-26T10:47:36.401Z,99952.28
2023-02-26T10:48:38.686Z,99958.17
2023-02-26T10:49:41.100Z,99949.30
2023-02-26T10:50:43.429Z,99955.52
2023-02-26T10:51:45.931Z,99957.08
2023-02-26T10:52:48.264Z,99957.35
2023-02-26T10:53:52.324Z,99962.98
2023-02-26T10:54:56.118Z,99961.14
2023-02-26T10:55:59.985Z,99957.02
2023-02-26T10:57:02.265Z,99956.50
2023-02-26T10:58:04.891Z,99967.64
2023-02-26T10:59:08.940Z,99968.41
2023-02-26T11:00:12.900Z,99965.76
2023-02-26T11:01:17.105Z,99971.53
2023-02-26T11:02:19.250Z,99969.11
2023-02-26T11:03:21.611Z,99969.53
2023-02-26T11:04:23.985Z,99965.70
2023-02-26T11:05:26.375Z,99970.06
2023-02-26T11:06:28.793Z,99969.74
2023-02-26T11:07:32.354Z,99966.80
2023-02-26T11:08:33.600Z,99963.03
2023-02-26T11:09:36.013Z,99968.09
2023-02-26T11:10:38.340Z,99968.94
2023-02-26T11:11:41.101Z,99967.11
2023-02-26T11:12:44.927Z,99971.40
2023-02-26T11:13:47.212Z,99968.03
2023-02-26T11:14:49.619Z,99973.05
2023-02-26T11:15:53.634Z,99971.93
2023-02-26T11:16:55.870Z,99959.75
2023-02-26T11:17:59.821Z,99969.89
2023-02-26T11:19:03.730Z,99962.55
2023-02-26T11:20:05.918Z,99964.07
2023-02-26T11:21:08.809Z,99968.41
2023-02-26T11:22:12.940Z,99965.34
2023-02-26T11:23:16.694Z,99962.61
2023-02-26T11:24:18.971Z,99965.58
2023-02-26T11:25:21.271Z,99967.17
2023-02-26T11:26:23.668Z,99963.18
2023-02-26T11:27:26.066Z,99967.50
2023-02-26T11:28:28.654Z,99962.91
2023-02-26T11:29:31.205Z,99976.05
2023-02-26T11:30:33.545Z,99968.69
2023-02-26T11:31:36.073Z,99966.12
2023-02-26T11:32:38.381Z,99968.18
2023-02-26T11:33:41.280Z,99970.66
2023-02-26T11:34:45.589Z,99978.79
2023-02-26T11:35:47.688Z,99967.60
2023-02-26T11:36:50.081Z,99973.64
2023-02-26T11:37:54.291Z,99968.32
2023-02-26T11:38:56.534Z,99970.73
2023-02-26T11:40:00.565Z,99969.32
2023-02-26T11:41:02.773Z,99965.69
2023-02-26T11:42:06.806Z,99973.89
2023-02-26T11:43:10.654Z,99968.95
2023-02-26T11:44:13.302Z,99962.38
2023-02-26T11:45:15.669Z,99971.43
2023-02-26T11:46:18.124Z,99958.23
2023-02-26T11:47:20.423Z,99966.98
2023-02-26T11:48:24.529Z,99966.17
2023-02-26T11:49:26.776Z,99968.66
2023-02-26T11:50:29.446Z,99969.45
2023-02-26T11:51:33.399Z,99968.19
2023-02-26T11:52:35.693Z,99969.20
2023-02-26T11:53:38.014Z,99962.23
2023-02-26T11:54:40.488Z,99964.09
2023-02-26T11:55:42.808Z,99962.30
2023-02-26T11:56:45.374Z,99969.45
2023-02-26T11:57:47.741Z,99970.31
2023-02-26T11:58:52.877Z,99975.53
2023-02-26T11:59:53.993Z,99968.13
2023-02-26T12:00:56.422Z,99964.72
2023-02-26T12:01:58.809Z,99965.72
2023-02-26T12:03:01.260Z,99968.66
2023-02-26T12:04:03.701Z,99972.72
2023-02-26T12:05:05.977Z,99969.13
2023-02-26T12:06:08.403Z,99972.88
2023-02-26T12:07:10.771Z,99974.38
2023-02-26T12:08:14.776Z,99973.27
2023-02-26T12:09:17.041Z,99974.89
2023-02-26T12:10:19.394Z,99970.63
2023-02-26T12:11:23.412Z,99971.33
2023-02-26T12:12:25.687Z,99976.47
2023-02-26T12:13:28.029Z,99972.65
2023-02-26T12:14:30.424Z,99979.31
2023-02-26T12:15:32.822Z,99975.50
2023-02-26T12:16:35.160Z,99974.49
2023-02-26T12:17:37.508Z,99976.58
2023-02-26T12:18:41.493Z,99981.02
2023-02-26T12:19:43.767Z,99976.01
2023-02-26T12:20:46.174Z,99980.64
2023-02-26T12:21:48.503Z,99980.13
2023-02-26T12:22:52.470Z,99976.48
2023-02-26T12:23:54.747Z,99978.95
2023-02-26T12:24:57.124Z,99977.23
2023-02-26T12:25:59.562Z,99972.07
2023-02-26T12:27:02.026Z,99974.20
2023-02-26T12:28:04.408Z,99971.69
2023-02-26T12:29:09.359Z,99968.33
2023-02-26T12:30:13.176Z,99965.42
2023-02-26T12:31:15.471Z,99956.60
2023-02-26T12:32:17.938Z,99958.83
2023-02-26T12:33:21.784Z,99957.45
2023-02-26T12:34:25.685Z,99964.61
2023-02-26T12:35:27.954Z,99957.41
2023-02-26T12:36:46.639Z,99957.44
2023-02-26T12:37:34.300Z,99950.11
2023-02-26T12:38:36.727Z,99955.25
2023-02-26T12:39:39.136Z,99953.34
2023-02-26T12:40:41.470Z,99952.38
2023-02-26T12:41:45.423Z,99949.78
2023-02-26T12:42:47.717Z,99951.95
2023-02-26T12:43:51.728Z,99955.00
2023-02-26T12:44:54.107Z,99959.01
2023-02-26T12:45:56.463Z,99953.52
2023-02-26T12:47:00.476Z,99958.17
2023-02-26T12:48:02.665Z,99952.86
2023-02-26T12:49:05.037Z,99965.09
2023-02-26T12:50:07.464Z,99959.38
2023-02-26T12:51:09.860Z,99961.57
2023-02-26T12:52:12.227Z,99965.53
2023-02-26T12:53:14.652Z,99964.35
2023-02-26T12:54:17.019Z,99969.95
2023-02-26T12:55:21.075Z,99968.16
2023-02-26T12:56:23.271Z,99964.28
2023-02-26T12:57:25.644Z,99967.52
2023-02-26T12:58:29.582Z,99965.19
2023-02-26T12:59:33.441Z,99965.58
2023-02-26T13:00:35.742Z,99971.01
2023-02-26T13:01:38.100Z,99973.91
2023-02-26T13:02:40.464Z,99969.72
2023-02-26T13:03:42.895Z,99968.73
2023-02-26T13:04:46.863Z,99973.96
2023-02-26T13:05:49.050Z,99970.25
2023-02-26T13:06:51.412Z,99969.52
2023-02-26T13:07:55.405Z,99976.38
2023-02-26T13:08:57.625Z,99976.14
2023-02-26T13:10:01.637Z,99971.59
2023-02-26T13:11:03.943Z,99976.31
2023-02-26T13:12:06.390Z,99975.30
2023-02-26T13:13:08.704Z,99975.45
2023-02-26T13:14:11.136Z,99980.52
2023-02-26T13:15:13.543Z,99982.55
2023-02-26T13:16:16.008Z,99986.59
2023-02-26T13:17:19.358Z,99982.55
2023-02-26T13:18:21.635Z,99980.86
2023-02-26T13:19:26.099Z,99976.02
2023-02-26T13:20:27.874Z,99980.67
2023-02-26T13:21:30.295Z,99985.66
2023-02-26T13:22:32.676Z,99968.88
2023-02-26T13:23:35.077Z,99998.27
2023-02-26T13:24:37.539Z,99994.00
2023-02-26T13:25:39.905Z,99998.13
2023-02-26T13:26:42.372Z,99994.61
2023-02-26T13:27:46.291Z,99989.78
2023-02-26T13:28:48.556Z,99991.59
2023-02-26T13:29:51.002Z,99991.14
2023-02-26T13:30:53.436Z,99998.67
2023-02-26T13:31:55.975Z,99990.66
2023-02-26T13:32:59.955Z,99992.31
2023-02-26T13:34:03.589Z,99999.36
2023-02-26T13:35:05.828Z,99995.13
2023-02-26T13:36:08.268Z,99994.56
2023-02-26T13:37:10.644Z,99998.61
2023-02-26T13:38:12.996Z,99992.42
2023-02-26T13:39:15.439Z,99997.66
2023-02-26T13:40:17.816Z,99991.27
2023-02-26T13:41:20.261Z,99997.89
2023-02-26T13:42:22.586Z,99994.00
2023-02-26T13:43:25.016Z,99992.95
2023-02-26T13:44:27.423Z,99992.53
2023-02-26T13:45:31.424Z,99994.33
2023-02-26T13:46:33.692Z,99991.20
2023-02-26T13:47:36.195Z,99990.47
2023-02-26T13:48:38.490Z,99992.42
2023-02-26T13:49:40.910Z,99990.59
2023-02-26T13:50:43.332Z,99996.77
2023-02-26T13:51:45.763Z,99990.20
2023-02-26T13:52:48.112Z,99985.56
2023-02-26T13:53:50.514Z,99986.20
2023-02-26T13:54:52.877Z,99988.23
2023-02-26T13:55:56.885Z,99985.73
2023-02-26T13:56:59.247Z,99982.46
2023-02-26T13:58:01.595Z,99991.52
2023-02-26T13:59:05.618Z,99987.88
2023-02-26T14:00:07.933Z,99984.71
2023-02-26T14:01:12.028Z,99983.47
2023-02-26T14:02:14.126Z,99987.08
2023-02-26T14:03:18.184Z,99990.53
2023-02-26T14:04:22.139Z,99994.11
2023-02-26T14:05:25.878Z,99991.75
2023-02-26T14:06:28.124Z,99983.42
2023-02-26T14:07:30.530Z,99988.87
2023-02-26T14:08:32.915Z,99987.34
2023-02-26T14:09:35.306Z,99990.77
2023-02-26T14:10:39.334Z,99991.47
2023-02-26T14:11:43.237Z,99991.37
2023-02-26T14:12:45.423Z,99998.45
2023-02-26T14:13:47.807Z,99994.38
2023-02-26T14:14:50.252Z,100001.76
2023-02-26T14:15:52.625Z,99994.30
2023-02-26T14:16:55.091Z,99994.71
2023-02-26T14:18:00.748Z,100003.66
2023-02-26T14:19:01.211Z,100007.25
2023-02-26T14:20:03.623Z,100011.30
2023-02-26T14:21:05.991Z,100011.23
2023-02-26T14:22:08.428Z,100009.48
2023-02-26T14:23:10.756Z,100005.57
2023-02-26T14:24:13.196Z,100008.04
2023-02-26T14:25:15.521Z,100011.05
2023-02-26T14:26:19.520Z,100014.58
2023-02-26T14:27:21.754Z,100013.44
2023-02-26T14:28:24.151Z,100009.17
2023-02-26T14:29:26.548Z,100017.59
2023-02-26T14:30:28.974Z,100011.13
2023-02-26T14:31:31.691Z,100013.87
2023-02-26T14:32:33.770Z,100014.88
2023-02-26T14:33:36.030Z,100018.08
2023-02-26T14:34:40.013Z,100024.27
2023-02-26T14:35:42.334Z,100017.43
2023-02-26T14:36:44.660Z,100015.03
2023-02-26T14:37:47.054Z,100020.71
2023-02-26T14:38:49.385Z,100017.80
2023-02-26T14:39:52.188Z,100023.50
2023-02-26T14:40:54.670Z,100029.52
2023-02-26T14:41:57.055Z,100027.95
2023-02-26T14:42:59.953Z,100025.83
2023-02-26T14:44:08.216Z,100029.53
2023-02-26T14:45:11.948Z,100027.39
2023-02-26T14:46:14.211Z,100023.00
2023-02-26T14:47:16.610Z,100023.99
2023-02-26T14:48:20.571Z,100024.45
2023-02-26T14:49:22.851Z,100026.20
2023-02-26T14:50:26.804Z,100023.66
2023-02-26T14:51:30.663Z,100019.09
2023-02-26T14:52:32.936Z,100021.73
2023-02-26T14:53:35.339Z,100021.30
2023-02-26T14:54:37.795Z,100018.38
2023-02-26T14:55:41.829Z,100023.69
2023-02-26T14:56:44.123Z,100019.28
2023-02-26T14:57:46.529Z,100025.48
2023-02-26T14:58:48.854Z,100020.17
2023-02-26T14:59:51.321Z,100016.17
2023-02-26T15:00:53.649Z,100021.69
2023-02-26T15:01:56.325Z,100031.44
2023-02-26T15:02:58.471Z,100023.97
2023-02-26T15:04:00.989Z,100025.18
2023-02-26T15:05:03.304Z,100021.19
2023-02-26T15:06:05.826Z,100026.09
2023-02-26T15:07:08.091Z,100025.86
2023-02-26T15:08:10.466Z,100029.91
2023-02-26T15:09:12.873Z,100028.73
2023-02-26T15:10:15.268Z,100030.21
2023-02-26T15:11:17.653Z,100031.92
2023-02-26T15:12:21.676Z,100032.98
2023-02-26T15:13:25.649Z,100035.55
2023-02-26T15:14:27.964Z,100036.77
2023-02-26T15:15:30.349Z,100031.47
2023-02-26T15:16:32.751Z,100029.75
2023-02-26T15:17:35.136Z,100039.05
2023-02-26T15:18:37.602Z,100036.84
2023-02-26T15:19:39.829Z,100040.56
2023-02-26T15:20:42.272Z,100033.46
2023-02-26T15:21:46.391Z,100036.48
2023-02-26T15:22:48.541Z,100034.29
2023-02-26T15:23:50.978Z,100033.58
2023-02-26T15:24:53.425Z,100043.78
2023-02-26T15:25:55.777Z,100036.92
2023-02-26T15:26:58.180Z,100043.42
2023-02-26T15:28:00.541Z,100036.37
2023-02-26T15:29:02.968Z,100038.39
2023-02-26T15:30:05.466Z,100044.99
2023-02-26T15:31:07.847Z,100042.77
2023-02-26T15:32:10.715Z,100043.75
2023-02-26T15:33:13.143Z,100044.74
2023-02-26T15:34:15.813Z,100052.28
2023-02-26T15:35:18.445Z,100050.77
2023-02-26T15:36:22.833Z,100055.52
2023-02-26T15:37:25.224Z,100052.64
2023-02-26T15:38:29.747Z,100057.21
2023-02-26T15:39:32.183Z,100055.38
2023-02-26T15:40:34.709Z,100050.02
2023-02-26T15:41:38.975Z,100060.16
2023-02-26T15:42:41.515Z,100064.02
2023-02-26T15:43:44.154Z,100059.23
2023-02-26T15:44:56.679Z,100062.25
2023-02-26T15:45:52.521Z,100066.70
2023-02-26T15:46:55.054Z,100069.53
2023-02-26T15:47:57.604Z,100064.79
2023-02-26T15:49:00.164Z,100066.28
2023-02-26T15:58:31.227Z,100071.68
2023-02-26T15:59:33.960Z,100075.98
2023-02-26T16:00:36.639Z,100067.48
2023-02-26T16:01:39.327Z,100071.41
2023-02-26T16:02:41.948Z,100067.61
2023-02-26T16:03:44.638Z,100063.64
2023-02-26T16:04:47.274Z,100071.36
2023-02-26T16:05:49.939Z,100071.10
2023-02-26T16:06:52.582Z,100065.44
2023-02-26T16:07:55.224Z,100070.47
2023-02-26T16:08:57.790Z,100072.05
2023-02-26T16:10:00.450Z,100077.39
2023-02-26T16:11:02.939Z,100075.59
2023-02-26T16:12:05.524Z,100077.67
2023-02-26T16:13:08.278Z,100089.26
2023-02-26T16:14:10.672Z,100081.01
2023-02-26T16:15:13.175Z,100081.75
2023-02-26T16:16:15.863Z,100086.27
2023-02-26T16:17:18.455Z,100083.67
2023-02-26T16:18:21.062Z,100085.50
2023-02-26T16:19:23.592Z,100087.05
2023-02-26T16:20:27.755Z,100083.93
2023-02-26T16:21:30.184Z,100084.36
2023-02-26T16:22:32.804Z,100088.21
2023-02-26T16:23:35.462Z,100092.42
2023-02-26T16:24:41.533Z,100090.51
2023-02-26T16:25:43.635Z,100104.09
2023-02-26T16:26:45.842Z,100104.15
2023-02-26T16:27:49.728Z,100102.19
2023-02-26T16:28:51.947Z,100106.83
2023-02-26T16:29:55.796Z,100107.44
2023-02-26T16:30:59.530Z,100106.89
2023-02-26T16:32:01.851Z,100111.86
2023-02-26T16:33:04.031Z,100109.20
2023-02-26T16:34:06.458Z,100114.41
2023-02-26T16:35:08.876Z,100116.63
2023-02-26T16:36:11.243Z,100120.09
2023-02-26T16:37:13.664Z,100109.13
2023-02-26T16:38:16.003Z,100116.95
2023-02-26T16:39:19.990Z,100121.09
2023-02-26T16:40:22.295Z,100119.56
2023-02-26T16:41:24.953Z,100115.42
2023-02-26T16:42:27.072Z,100125.56
2023-02-26T16:43:29.347Z,100121.09
2023-02-26T16:44:33.411Z,100122.59
2023-02-26T16:45:35.650Z,100132.20
2023-02-26T16:55:06.545Z,100139.66
2023-02-26T16:56:08.943Z,100141.91
2023-02-26T16:57:12.939Z,100139.92
2023-02-26T17:06:42.367Z,100162.80
2023-02-26T17:07:46.416Z,100158.80
2023-02-26T17:08:48.623Z,100158.75
2023-02-26T17:09:50.950Z,100167.30
2023-02-26T17:10:53.472Z,100173.49
2023-02-26T17:11:55.786Z,100171.27
2023-02-26T17:12:58.142Z,100167.73
2023-02-26T17:22:29.034Z,100188.09
2023-02-26T17:23:31.440Z,100181.32
2023-02-26T17:24:35.492Z,100180.83
2023-02-26T17:34:06.391Z,100193.91
2023-02-26T17:43:37.727Z,100209.94
2023-02-26T17:53:12.882Z,100224.45
2023-02-26T17:54:16.755Z,100221.02
2023-02-26T18:03:47.412Z,100230.19
2023-02-26T18:13:20.764Z,100235.37
2023-02-26T18:22:55.725Z,100254.34
2023-02-26T18:32:27.264Z,100255.55
2023-02-26T18:42:01.060Z,100248.58
2023-02-26T18:51:36.505Z,100253.95
2023-02-26T19:01:08.278Z,100270.86
2023-02-26T19:10:41.675Z,100285.94
2023-02-26T19:20:15.122Z,100289.11
2023-02-26T19:29:48.189Z,100293.06
2023-02-26T19:39:21.018Z,100308.78
2023-02-26T19:48:55.958Z,100319.53
2023-02-26T19:58:29.377Z,100327.03
2023-02-26T20:08:02.350Z,100327.42
2023-02-26T20:17:33.145Z,100338.74
2023-02-26T20:27:06.501Z,100342.05
2023-02-26T20:36:39.574Z,100364.94
2023-02-26T20:46:13.844Z,100363.09
2023-02-26T20:55:45.021Z,100364.28
2023-02-26T21:05:17.974Z,100372.41
2023-02-26T21:14:51.397Z,100371.84
2023-02-26T21:24:24.055Z,100372.44
2023-02-26T21:33:57.040Z,100379.91
2023-02-26T21:43:30.119Z,100376.01
2023-02-26T21:53:02.848Z,100376.13
2023-02-26T22:02:38.001Z,100381.93
2023-02-26T22:12:11.074Z,100372.78
2023-02-26T22:21:42.892Z,100384.74
2023-02-26T22:31:18.061Z,100376.41
2023-02-26T22:40:49.206Z,100388.11
2023-02-26T22:50:22.476Z,100392.91
2023-02-26T22:59:54.395Z,100380.73
2023-02-26T23:09:27.575Z,100391.14
2023-02-26T23:19:00.549Z,100400.61
2023-02-26T23:28:32.791Z,100398.47
2023-02-26T23:38:05.493Z,100397.98
2023-02-26T23:47:39.949Z,100399.20
2023-02-26T23:57:11.434Z,100413.24
